createdAt,value
2023-05-23T00:02:18.476Z,6.45
2023-05-23T00:04:45.284Z,5.78
2023-05-23T00:07:12.063Z,5.85
2023-05-23T00:09:41.936Z,7.55
2023-05-23T00:12:09.011Z,7.95
2023-05-23T00:14:35.863Z,4.68
2023-05-23T00:17:02.667Z,5.53
2023-05-23T00:19:29.687Z,4.10
2023-05-23T00:21:59.458Z,6.45
2023-05-23T00:24:26.273Z,4.70
2023-05-23T00:26:53.200Z,7.40
2023-05-23T00:29:20.307Z,9.90
2023-05-23T00:31:47.625Z,6.03
2023-05-23T00:34:15.477Z,4.95
2023-05-23T00:36:43.887Z,6.15
2023-05-23T00:39:19.778Z,5.53
2023-05-23T00:41:51.404Z,5.00
2023-05-23T00:44:20.530Z,6.97
2023-05-23T00:46:51.293Z,4.93
2023-05-23T00:49:20.526Z,6.40
2023-05-23T00:51:47.526Z,6.47
2023-05-23T00:54:15.966Z,8.43
2023-05-23T00:56:44.183Z,4.95
2023-05-23T00:59:11.104Z,5.63
2023-05-23T01:01:37.903Z,5.78
2023-05-23T01:04:05.289Z,6.20
2023-05-23T01:06:33.882Z,5.95
2023-05-23T01:09:02.991Z,5.53
2023-05-23T01:11:42.316Z,5.15
2023-05-23T01:14:17.492Z,6.82
2023-05-23T01:16:49.366Z,6.07
2023-05-23T01:19:36.389Z,5.90
2023-05-23T01:22:09.573Z,8.75
2023-05-23T01:24:37.263Z,8.20
2023-05-23T01:27:36.365Z,8.20
2023-05-23T01:30:05.430Z,5.30
2023-05-23T01:32:32.573Z,4.53
2023-05-23T01:34:59.891Z,6.90
2023-05-23T01:37:26.911Z,8.05
2023-05-23T01:39:54.328Z,5.43
2023-05-23T01:42:21.652Z,6.70
2023-05-23T01:44:48.597Z,6.05
2023-05-23T01:47:15.675Z,4.80
2023-05-23T01:49:45.087Z,6.63
2023-05-23T01:52:13.545Z,5.30
2023-05-23T01:54:42.712Z,5.43
2023-05-23T01:57:11.376Z,7.30
2023-05-23T01:59:41.247Z,5.80
2023-05-23T02:02:08.297Z,7.78
2023-05-23T02:04:35.219Z,5.80
2023-05-23T02:07:02.147Z,5.80
2023-05-23T02:09:29.038Z,7.07
2023-05-23T02:11:56.058Z,9.18
2023-05-23T02:14:26.787Z,7.38
2023-05-23T02:16:54.168Z,6.22
2023-05-23T02:19:21.133Z,6.75
2023-05-23T02:21:48.077Z,6.80
2023-05-23T02:24:14.832Z,5.65
2023-05-23T02:26:42.024Z,6.00
2023-05-23T02:29:08.787Z,8.05
2023-05-23T02:31:36.659Z,8.27
2023-05-23T02:34:03.520Z,5.22
2023-05-23T02:36:30.391Z,9.32
2023-05-23T02:38:57.474Z,6.10
2023-05-23T02:41:24.348Z,6.50
2023-05-23T02:43:54.240Z,6.60
2023-05-23T02:46:21.049Z,6.80
2023-05-23T02:48:48.525Z,5.72
2023-05-23T02:51:15.588Z,7.32
2023-05-23T02:53:42.542Z,9.32
2023-05-23T02:56:09.996Z,7.80
2023-05-23T02:58:37.284Z,6.88
2023-05-23T03:01:07.028Z,11.05
2023-05-23T03:03:35.088Z,8.30
2023-05-23T03:06:06.600Z,5.65
2023-05-23T03:08:33.692Z,12.13
2023-05-23T03:11:00.559Z,10.73
2023-05-23T03:13:27.492Z,7.70
2023-05-23T03:15:54.392Z,6.85
2023-05-23T03:18:21.400Z,6.30
2023-05-23T03:20:48.594Z,6.47
2023-05-23T03:23:15.843Z,6.40
2023-05-23T03:25:43.777Z,7.43
2023-05-23T03:28:12.664Z,7.55
2023-05-23T03:30:39.639Z,7.05
2023-05-23T03:33:07.386Z,8.18
2023-05-23T03:35:34.716Z,6.70
2023-05-23T03:38:01.878Z,6.65
2023-05-23T03:40:29.107Z,5.70
2023-05-23T03:43:04.975Z,10.10
2023-05-23T03:45:33.469Z,6.30
2023-05-23T03:48:02.749Z,6.18
2023-05-23T03:50:30.345Z,8.45
2023-05-23T03:52:57.308Z,6.50
2023-05-23T03:55:25.723Z,6.78
2023-05-23T03:57:52.732Z,8.85
2023-05-23T04:00:20.420Z,5.82
2023-05-23T04:02:52.191Z,6.63
2023-05-23T04:05:22.214Z,6.80
2023-05-23T04:07:50.247Z,7.90
2023-05-23T04:10:17.331Z,9.30
2023-05-23T04:12:45.049Z,6.55
2023-05-23T04:15:16.224Z,6.90
2023-05-23T04:17:55.077Z,11.30
2023-05-23T04:20:22.385Z,6.35
2023-05-23T04:22:52.575Z,7.25
2023-05-23T04:25:20.566Z,8.10
2023-05-23T04:28:12.117Z,7.93
2023-05-23T04:30:39.252Z,8.07
2023-05-23T04:33:06.749Z,6.55
2023-05-23T04:35:34.555Z,8.30
2023-05-23T04:38:02.144Z,9.85
2023-05-23T04:40:30.555Z,8.95
2023-05-23T04:43:17.433Z,8.05
2023-05-23T04:45:54.709Z,7.45
2023-05-23T04:48:50.961Z,7.63
2023-05-23T04:51:17.888Z,8.38
2023-05-23T04:53:52.833Z,8.27
2023-05-23T04:56:22.028Z,8.13
2023-05-23T04:58:49.551Z,8.45
2023-05-23T05:01:17.165Z,6.65
2023-05-23T05:03:44.246Z,5.78
2023-05-23T05:06:11.259Z,14.07
2023-05-23T05:08:38.170Z,6.70
2023-05-23T05:11:05.349Z,7.55
2023-05-23T05:13:32.813Z,7.25
2023-05-23T05:15:59.747Z,6.78
2023-05-23T05:18:27.551Z,8.35
2023-05-23T05:20:57.301Z,9.27
2023-05-23T05:23:26.224Z,7.82
2023-05-23T05:25:53.111Z,7.00
2023-05-23T05:28:22.073Z,8.98
2023-05-23T05:30:54.565Z,8.13
2023-05-23T05:33:26.199Z,10.30
2023-05-23T05:36:04.156Z,9.57
2023-05-23T05:38:31.192Z,10.77
2023-05-23T05:40:58.084Z,8.32
2023-05-23T05:43:27.405Z,9.10
2023-05-23T05:45:54.353Z,7.88
2023-05-23T05:48:21.421Z,8.20
2023-05-23T05:50:48.373Z,6.63
2023-05-23T05:53:15.293Z,6.85
2023-05-23T05:55:42.305Z,7.18
2023-05-23T05:58:09.086Z,7.72
2023-05-23T06:00:50.284Z,8.93
2023-05-23T06:03:17.258Z,9.85
2023-05-23T06:05:55.460Z,11.85
2023-05-23T06:08:22.693Z,7.95
2023-05-23T06:10:49.617Z,9.25
2023-05-23T06:13:17.253Z,10.20
2023-05-23T06:15:47.883Z,8.02
2023-05-23T06:18:15.130Z,7.47
2023-05-23T06:20:42.128Z,8.10
2023-05-23T06:23:14.350Z,8.25
2023-05-23T06:25:41.437Z,9.10
2023-05-23T06:28:08.695Z,7.78
2023-05-23T06:30:37.668Z,8.20
2023-05-23T06:33:05.140Z,6.72
2023-05-23T06:35:31.999Z,11.02
2023-05-23T06:38:01.598Z,7.95
2023-05-23T06:40:28.386Z,5.85
2023-05-23T06:42:56.016Z,9.60
2023-05-23T06:45:36.126Z,7.72
2023-05-23T06:48:02.982Z,10.98
2023-05-23T06:50:31.563Z,8.95
2023-05-23T06:52:58.452Z,6.95
2023-05-23T06:55:25.395Z,8.60
2023-05-23T06:57:52.414Z,8.35
2023-05-23T07:00:21.207Z,8.05
2023-05-23T07:03:03.974Z,6.18
2023-05-23T07:05:33.477Z,13.88
2023-05-23T07:08:00.456Z,8.50
2023-05-23T07:10:27.518Z,9.57
2023-05-23T07:13:00.509Z,6.72
2023-05-23T07:15:28.299Z,8.73
2023-05-23T07:18:06.393Z,8.13
2023-05-23T07:20:34.325Z,7.82
2023-05-23T07:23:10.284Z,8.82
2023-05-23T07:25:40.361Z,7.60
2023-05-23T07:28:15.225Z,7.82
2023-05-23T07:30:42.788Z,8.95
2023-05-23T07:33:10.066Z,9.98
2023-05-23T07:35:37.647Z,8.63
2023-05-23T07:38:08.429Z,7.80
2023-05-23T07:40:35.350Z,9.63
2023-05-23T07:43:02.410Z,6.55
2023-05-23T07:45:29.373Z,5.75
2023-05-23T07:47:56.671Z,7.97
2023-05-23T07:50:23.689Z,7.13
2023-05-23T07:52:52.244Z,5.88
2023-05-23T07:55:24.874Z,7.53
2023-05-23T07:57:55.271Z,6.05
2023-05-23T08:00:22.693Z,8.35
2023-05-23T08:02:55.627Z,7.25
2023-05-23T08:05:28.486Z,7.18
2023-05-23T08:08:00.200Z,7.97
2023-05-23T08:10:29.827Z,6.85
2023-05-23T08:13:07.008Z,10.95
2023-05-23T08:15:40.014Z,6.03
2023-05-23T08:18:14.563Z,8.05
2023-05-23T08:20:42.748Z,7.80
2023-05-23T08:23:09.971Z,5.13
2023-05-23T08:25:36.888Z,6.85
2023-05-23T08:28:03.722Z,7.85
2023-05-23T08:30:54.315Z,6.28
2023-05-23T08:33:21.297Z,6.78
2023-05-23T08:35:49.812Z,5.88
2023-05-23T08:38:22.373Z,7.20
2023-05-23T08:41:05.930Z,8.88
2023-05-23T08:43:32.896Z,9.13
2023-05-23T08:45:59.941Z,7.97
2023-05-23T08:48:29.995Z,10.15
2023-05-23T08:50:58.272Z,10.48
2023-05-23T08:53:27.542Z,7.50
2023-05-23T08:56:03.042Z,7.82
2023-05-23T08:58:42.116Z,8.63
2023-05-23T09:01:11.068Z,10.02
2023-05-23T09:03:39.265Z,8.63
2023-05-23T09:06:21.714Z,11.18
2023-05-23T09:08:48.861Z,10.88
2023-05-23T09:11:17.772Z,9.35
2023-05-23T09:13:46.149Z,15.20
2023-05-23T09:16:18.077Z,11.60
2023-05-23T09:18:55.043Z,11.25
2023-05-23T09:21:24.898Z,10.45
2023-05-23T09:24:02.320Z,13.20
2023-05-23T09:26:30.269Z,12.25
2023-05-23T09:29:00.651Z,12.73
2023-05-23T09:31:29.358Z,11.27
2023-05-23T09:33:58.504Z,12.82
2023-05-23T09:36:33.861Z,12.02
2023-05-23T09:39:05.828Z,12.27
2023-05-23T09:41:36.094Z,12.85
2023-05-23T09:44:08.807Z,14.13
2023-05-23T09:46:36.785Z,12.63
2023-05-23T09:49:11.485Z,12.13
2023-05-23T09:51:38.578Z,11.80
2023-05-23T09:54:05.355Z,11.38
2023-05-23T09:56:32.624Z,11.10
2023-05-23T09:58:59.805Z,11.77
2023-05-23T10:01:27.654Z,10.13
2023-05-23T10:04:00.250Z,11.23
2023-05-23T10:06:32.789Z,13.07
2023-05-23T10:09:06.432Z,10.32
2023-05-23T10:12:11.309Z,11.07
2023-05-23T10:14:41.356Z,9.70
2023-05-23T10:17:13.808Z,10.85
2023-05-23T10:19:47.489Z,11.93
2023-05-23T10:22:16.064Z,15.73
2023-05-23T10:24:45.243Z,13.27
2023-05-23T10:27:12.484Z,14.40
2023-05-23T10:29:39.373Z,18.75
2023-05-23T10:32:07.052Z,14.73
2023-05-23T10:34:45.002Z,15.90
2023-05-23T10:37:18.947Z,17.88
2023-05-23T10:40:01.671Z,18.85
2023-05-23T10:42:34.380Z,16.23
2023-05-23T10:45:21.208Z,16.75
2023-05-23T10:47:49.694Z,19.35
2023-05-23T10:50:31.651Z,19.17
2023-05-23T10:53:00.466Z,21.73
2023-05-23T10:55:32.347Z,19.45
2023-05-23T10:58:23.715Z,18.73
2023-05-23T11:00:57.097Z,20.85
2023-05-23T11:03:49.943Z,17.80
2023-05-23T11:06:30.226Z,19.00
2023-05-23T11:09:10.372Z,19.10
2023-05-23T11:11:49.464Z,17.58
2023-05-23T11:14:16.536Z,16.58
2023-05-23T11:16:45.741Z,18.00
2023-05-23T11:19:18.803Z,16.98
2023-05-23T11:22:06.288Z,20.00
2023-05-23T11:24:50.785Z,14.70
2023-05-23T11:27:20.440Z,16.10
2023-05-23T11:29:58.548Z,17.42
2023-05-23T11:32:28.344Z,17.58
2023-05-23T11:34:55.310Z,16.35
2023-05-23T11:37:25.924Z,14.13
2023-05-23T11:39:54.157Z,14.07
2023-05-23T11:42:21.075Z,15.30
2023-05-23T11:44:51.600Z,15.32
2023-05-23T11:47:18.895Z,14.50
2023-05-23T11:49:47.295Z,15.65
2023-05-23T11:52:14.695Z,14.82
2023-05-23T11:54:45.064Z,12.93
2023-05-23T11:57:14.416Z,15.38
2023-05-23T11:59:41.452Z,14.98
2023-05-23T12:02:08.633Z,16.70
2023-05-23T12:04:37.331Z,14.20
2023-05-23T12:07:07.996Z,13.30
2023-05-23T12:09:44.891Z,12.90
2023-05-23T12:12:12.857Z,15.82
2023-05-23T12:14:44.928Z,14.43
2023-05-23T12:17:13.147Z,15.15
2023-05-23T12:19:40.716Z,13.20
2023-05-23T12:22:08.556Z,14.10
2023-05-23T12:24:35.351Z,12.82
2023-05-23T12:27:02.932Z,14.88
2023-05-23T12:29:32.926Z,14.57
2023-05-23T12:32:03.293Z,14.57
2023-05-23T12:34:30.267Z,16.00
2023-05-23T12:37:18.107Z,15.23
2023-05-23T12:39:46.867Z,15.68
2023-05-23T12:42:13.865Z,14.27
2023-05-23T12:44:42.265Z,14.05
2023-05-23T12:47:09.418Z,14.88
2023-05-23T12:49:36.417Z,16.00
2023-05-23T12:52:03.226Z,16.10
2023-05-23T12:54:30.199Z,13.38
2023-05-23T12:56:57.203Z,12.85
2023-05-23T12:59:24.151Z,14.73
2023-05-23T13:01:50.934Z,13.27
2023-05-23T13:04:18.015Z,15.68
2023-05-23T13:06:44.865Z,14.40
2023-05-23T13:09:11.773Z,13.90
2023-05-23T13:11:41.739Z,12.13
2023-05-23T13:14:08.641Z,13.10
2023-05-23T13:16:36.661Z,12.27
2023-05-23T13:19:03.705Z,14.00
2023-05-23T13:21:31.869Z,14.25
2023-05-23T13:23:58.792Z,14.23
2023-05-23T13:26:26.947Z,14.48
2023-05-23T13:28:53.805Z,14.80
2023-05-23T13:31:20.626Z,21.30
2023-05-23T13:33:47.526Z,20.73
2023-05-23T13:36:14.502Z,23.52
2023-05-23T13:38:41.391Z,22.27
2023-05-23T13:41:08.474Z,18.45
2023-05-23T13:43:35.483Z,20.77
2023-05-23T13:46:03.308Z,24.98
2023-05-23T13:48:30.576Z,21.65
2023-05-23T13:50:57.650Z,23.65
2023-05-23T13:53:24.751Z,22.10
2023-05-23T13:55:51.595Z,22.20
2023-05-23T13:58:18.399Z,23.73
2023-05-23T14:00:45.462Z,26.67
2023-05-23T14:03:12.556Z,22.55
2023-05-23T14:05:39.548Z,25.55
2023-05-23T14:08:06.724Z,24.27
2023-05-23T14:10:33.695Z,20.30
2023-05-23T14:13:00.529Z,24.45
2023-05-23T14:15:28.061Z,23.10
2023-05-23T14:17:56.197Z,22.92
2023-05-23T14:20:23.841Z,24.58
2023-05-23T14:22:51.676Z,23.20
2023-05-23T14:25:19.070Z,22.35
2023-05-23T14:27:48.979Z,19.42
2023-05-23T14:30:16.453Z,17.95
2023-05-23T14:32:43.386Z,17.08
2023-05-23T14:35:11.525Z,17.05
2023-05-23T14:37:38.422Z,18.17
2023-05-23T14:40:07.090Z,21.35
2023-05-23T14:42:33.932Z,18.77
2023-05-23T14:45:00.881Z,18.63
2023-05-23T14:47:27.796Z,20.35
2023-05-23T14:49:54.718Z,18.95
2023-05-23T14:52:21.525Z,17.70
2023-05-23T14:54:48.742Z,15.38
2023-05-23T14:57:15.728Z,15.02
2023-05-23T14:59:42.584Z,13.70
2023-05-23T15:02:09.519Z,14.60
2023-05-23T15:04:36.732Z,12.55
2023-05-23T15:07:04.031Z,11.30
2023-05-23T15:09:31.113Z,12.57
2023-05-23T15:11:58.616Z,11.93
2023-05-23T15:14:29.767Z,11.60
2023-05-23T15:16:56.938Z,12.73
2023-05-23T15:19:23.806Z,15.48
2023-05-23T15:21:52.060Z,12.45
2023-05-23T15:24:19.307Z,14.80
2023-05-23T15:26:46.185Z,15.55
2023-05-23T15:29:14.688Z,12.48
2023-05-23T15:31:41.637Z,11.63
2023-05-23T15:34:08.735Z,11.23
2023-05-23T15:36:36.877Z,9.70
2023-05-23T15:39:05.101Z,11.63
2023-05-23T15:41:32.478Z,9.13
2023-05-23T15:43:59.364Z,9.20
2023-05-23T15:46:26.353Z,8.88
2023-05-23T15:48:53.325Z,9.38
2023-05-23T15:51:20.201Z,6.57
2023-05-23T15:54:00.464Z,6.15
2023-05-23T15:56:27.991Z,6.43
2023-05-23T15:58:55.205Z,6.50
2023-05-23T16:01:22.292Z,8.43
2023-05-23T16:03:49.609Z,7.28
2023-05-23T16:06:16.768Z,8.75
2023-05-23T16:08:43.542Z,12.68
2023-05-23T16:11:10.320Z,9.57
2023-05-23T16:13:37.143Z,7.93
2023-05-23T16:16:04.775Z,7.00
2023-05-23T16:18:31.977Z,7.00
2023-05-23T16:20:58.853Z,7.97
2023-05-23T16:23:26.120Z,7.78
2023-05-23T16:25:53.523Z,9.00
2023-05-23T16:28:21.630Z,7.13
2023-05-23T16:30:48.639Z,6.00
2023-05-23T16:33:15.801Z,6.50
2023-05-23T16:35:43.066Z,6.82
2023-05-23T16:38:10.706Z,5.72
2023-05-23T16:40:37.549Z,5.38
2023-05-23T16:43:05.011Z,6.18
2023-05-23T16:45:31.914Z,6.35
2023-05-23T16:47:59.719Z,5.68
2023-05-23T16:50:26.579Z,4.75
2023-05-23T16:52:53.476Z,5.03
2023-05-23T16:55:20.318Z,5.38
2023-05-23T16:57:47.162Z,4.35
2023-05-23T17:00:14.383Z,4.97
2023-05-23T17:02:41.805Z,4.45
2023-05-23T17:05:09.120Z,5.25
2023-05-23T17:07:35.967Z,4.00
2023-05-23T17:10:03.047Z,5.38
2023-05-23T17:12:29.959Z,3.17
2023-05-23T17:14:56.895Z,3.03
2023-05-23T17:17:23.724Z,4.95
2023-05-23T17:19:50.748Z,3.42
2023-05-23T17:22:17.626Z,4.18
2023-05-23T17:24:44.502Z,2.70
2023-05-23T17:27:11.339Z,4.72
2023-05-23T17:29:38.128Z,4.30
2023-05-23T17:32:05.664Z,2.90
2023-05-23T17:34:32.577Z,3.30
2023-05-23T17:36:59.356Z,4.43
2023-05-23T17:39:26.597Z,6.55
2023-05-23T17:41:53.508Z,3.58
2023-05-23T17:44:20.691Z,3.78
2023-05-23T17:46:47.772Z,3.58
2023-05-23T17:49:14.750Z,4.80
2023-05-23T17:51:41.653Z,4.40
2023-05-23T17:54:08.630Z,4.80
2023-05-23T17:56:35.584Z,4.70
2023-05-23T17:59:04.702Z,4.25
2023-05-23T18:01:31.876Z,3.10
2023-05-23T18:03:58.910Z,4.95
2023-05-23T18:06:27.450Z,4.20
2023-05-23T18:08:55.468Z,3.70
2023-05-23T18:11:23.070Z,4.45
2023-05-23T18:13:50.156Z,3.58
2023-05-23T18:16:17.269Z,5.30
2023-05-23T18:18:45.172Z,7.07
2023-05-23T18:21:12.056Z,5.93
2023-05-23T18:23:39.122Z,4.78
2023-05-23T18:26:05.960Z,6.63
2023-05-23T18:28:32.774Z,6.80
2023-05-23T18:31:01.513Z,4.78
2023-05-23T18:33:28.434Z,9.10
2023-05-23T18:35:55.343Z,6.93
2023-05-23T18:38:22.140Z,7.28
2023-05-23T18:40:48.970Z,5.00
2023-05-23T18:43:17.701Z,5.80
2023-05-23T18:45:44.779Z,4.88
2023-05-23T18:48:11.658Z,4.78
2023-05-23T18:50:38.958Z,4.75
2023-05-23T18:53:05.898Z,8.98
2023-05-23T18:55:32.848Z,5.07
2023-05-23T18:57:59.638Z,7.18
2023-05-23T19:00:26.504Z,8.45
2023-05-23T19:02:53.410Z,5.85
2023-05-23T19:05:21.068Z,7.82
2023-05-23T19:07:47.855Z,7.50
2023-05-23T19:10:14.862Z,7.20
2023-05-23T19:12:41.654Z,7.13
2023-05-23T19:15:10.856Z,11.93
2023-05-23T19:17:38.317Z,7.68
2023-05-23T19:20:05.545Z,8.05
2023-05-23T19:22:46.972Z,6.22
2023-05-23T19:25:17.807Z,7.78
2023-05-23T19:27:44.675Z,7.38
2023-05-23T19:30:12.448Z,9.77
2023-05-23T19:32:39.757Z,10.88
2023-05-23T19:35:07.336Z,11.10
2023-05-23T19:37:34.519Z,10.43
2023-05-23T19:40:02.098Z,7.57
2023-05-23T19:42:32.332Z,8.45
2023-05-23T19:44:59.320Z,12.52
2023-05-23T19:47:27.952Z,9.20
2023-05-23T19:49:55.875Z,11.27
2023-05-23T19:52:22.738Z,12.38
2023-05-23T19:54:49.513Z,8.20
2023-05-23T19:57:16.431Z,12.63
2023-05-23T19:59:43.282Z,14.57
2023-05-23T20:02:10.310Z,14.73
2023-05-23T20:04:37.212Z,9.52
2023-05-23T20:07:04.113Z,12.52
2023-05-23T20:09:31.045Z,16.77
2023-05-23T20:11:58.244Z,12.30
2023-05-23T20:14:25.120Z,13.88
2023-05-23T20:16:54.047Z,8.95
2023-05-23T20:19:21.070Z,11.75
2023-05-23T20:21:48.188Z,10.18
2023-05-23T20:24:15.246Z,8.02
2023-05-23T20:26:42.678Z,13.75
2023-05-23T20:29:09.495Z,11.68
2023-05-23T20:31:36.481Z,11.82
2023-05-23T20:34:03.672Z,10.48
2023-05-23T20:36:30.801Z,15.55
2023-05-23T20:38:58.419Z,10.45
2023-05-23T20:41:25.648Z,15.30
2023-05-23T20:43:52.520Z,9.25
2023-05-23T20:46:19.449Z,9.27
2023-05-23T20:48:46.653Z,11.95
2023-05-23T20:51:13.753Z,11.70
2023-05-23T20:53:40.788Z,10.52
2023-05-23T20:56:10.562Z,12.05
2023-05-23T20:58:38.295Z,9.90
2023-05-23T21:01:05.281Z,15.18
2023-05-23T21:03:32.368Z,16.52
2023-05-23T21:05:59.230Z,11.43
2023-05-23T21:08:26.390Z,12.23
2023-05-23T21:10:54.672Z,11.65
